Time;durP1;ratioP1;P1;durP2;ratioP2;P2;SDS_P1;SDS_P2;PMS_P1;PMS_P2;Temp;Humidity;BMP_temperature;BMP_pressure;BME280_temperature;BME280_humidity;BME280_pressure;Samples;Min_cycle;Max_cycle;Signal;HPM_P1;HPM_P2
2023/07/15 00:01:36;;;;;;;3.85;1.70;;;;;;;;;;5111512;28;20439;-79
2023/07/15 00:04:02;;;;;;;2.70;2.00;;;;;;;;;;5109919;28;20069;-80
2023/07/15 00:06:27;;;;;;;2.85;1.73;;;;;;;;;;5111108;28;20039;-79
2023/07/15 00:08:53;;;;;;;2.47;2.08;;;;;;;;;;5092756;28;20492;-79
2023/07/15 00:11:22;;;;;;;2.08;1.73;;;;;;;;;;5109952;28;20058;-80
2023/07/15 00:13:47;;;;;;;1.98;1.80;;;;;;;;;;5111337;28;20024;-78
2023/07/15 00:16:13;;;;;;;2.05;1.77;;;;;;;;;;5111208;28;20028;-78
2023/07/15 00:18:38;;;;;;;1.95;1.77;;;;;;;;;;5109736;28;20363;-80
2023/07/15 00:21:23;;;;;;;2.65;1.70;;;;;;;;;;5109792;28;20024;-78
2023/07/15 00:23:55;;;;;;;2.40;1.90;;;;;;;;;;5111148;28;20031;-78
2023/07/15 00:26:21;;;;;;;2.13;1.67;;;;;;;;;;5109611;28;20042;-78
2023/07/15 00:28:49;;;;;;;2.00;1.80;;;;;;;;;;5109356;28;20034;-78
2023/07/15 00:31:14;;;;;;;1.58;1.48;;;;;;;;;;5109429;28;20016;-78
2023/07/15 00:33:40;;;;;;;2.92;1.70;;;;;;;;;;5110584;28;20036;-78
2023/07/15 00:36:06;;;;;;;3.50;1.67;;;;;;;;;;5109372;28;20063;-78
2023/07/15 00:38:34;;;;;;;1.85;1.70;;;;;;;;;;5110492;28;20031;-77
2023/07/15 00:40:59;;;;;;;1.95;1.77;;;;;;;;;;5109570;28;20023;-78
2023/07/15 00:43:54;;;;;;;2.47;2.15;;;;;;;;;;5143386;27;20028;-78
2023/07/15 00:46:22;;;;;;;2.67;1.60;;;;;;;;;;5110395;28;20020;-78
2023/07/15 00:49:10;;;;;;;2.47;1.50;;;;;;;;;;5110360;28;20020;-78
2023/07/15 00:51:39;;;;;;;1.65;1.50;;;;;;;;;;5088415;28;20044;-78
2023/07/15 00:54:05;;;;;;;1.80;1.55;;;;;;;;;;5088782;28;20032;-78
2023/07/15 00:56:31;;;;;;;2.30;1.80;;;;;;;;;;5088594;28;20111;-78
2023/07/15 00:58:57;;;;;;;3.42;1.77;;;;;;;;;;5088804;28;20028;-79
2023/07/15 01:01:23;;;;;;;2.60;1.67;;;;;;;;;;5084324;28;20032;-77
2023/07/15 01:03:48;;;;;;;2.50;1.70;;;;;;;;;;5108849;28;20032;-79
2023/07/15 01:06:14;;;;;;;1.98;1.60;;;;;;;;;;5074866;28;20365;-80
2023/07/15 01:08:40;;;;;;;2.55;1.83;;;;;;;;;;5075155;28;20036;-81
2023/07/15 01:11:06;;;;;;;1.88;1.70;;;;;;;;;;5076255;28;20058;-78
2023/07/15 01:13:32;;;;;;;2.22;1.50;;;;;;;;;;5076422;28;20074;-78
2023/07/15 01:15:58;;;;;;;2.30;1.80;;;;;;;;;;5091780;28;20471;-78
2023/07/15 01:18:23;;;;;;;3.33;2.08;;;;;;;;;;5091625;28;20033;-78
2023/07/15 01:20:50;;;;;;;2.33;1.70;;;;;;;;;;5109520;28;20066;-78
2023/07/15 01:23:16;;;;;;;2.47;1.70;;;;;;;;;;5075443;28;20020;-78
2023/07/15 01:25:42;;;;;;;4.10;2.00;;;;;;;;;;5074876;28;20360;-78
2023/07/15 01:28:07;;;;;;;2.90;1.73;;;;;;;;;;5108264;28;20033;-78
2023/07/15 01:30:32;;;;;;;2.40;1.55;;;;;;;;;;5075600;28;20031;-78
2023/07/15 01:32:58;;;;;;;1.77;1.50;;;;;;;;;;5075922;28;20063;-78
2023/07/15 01:35:23;;;;;;;3.72;1.70;;;;;;;;;;5075815;28;20379;-78
2023/07/15 01:37:48;;;;;;;1.70;1.60;;;;;;;;;;5075556;28;20052;-78
2023/07/15 01:40:14;;;;;;;1.95;1.35;;;;;;;;;;5075559;28;20432;-78
2023/07/15 01:42:42;;;;;;;2.53;1.80;;;;;;;;;;5075475;28;20082;-78
2023/07/15 01:45:11;;;;;;;2.45;1.80;;;;;;;;;;5075707;28;20158;-78
2023/07/15 01:47:37;;;;;;;2.40;1.40;;;;;;;;;;5075592;28;20021;-78
2023/07/15 01:50:05;;;;;;;3.42;1.60;;;;;;;;;;5090623;28;20463;-78
2023/07/15 01:52:31;;;;;;;1.48;1.38;;;;;;;;;;5074090;28;20059;-80
2023/07/15 01:54:56;;;;;;;2.08;1.60;;;;;;;;;;5075209;28;20044;-79
2023/07/15 01:57:22;;;;;;;2.30;1.83;;;;;;;;;;5075448;28;20040;-79
2023/07/15 01:59:47;;;;;;;2.35;1.50;;;;;;;;;;5074227;28;20017;-79
2023/07/15 02:02:13;;;;;;;1.63;1.45;;;;;;;;;;5075353;28;20033;-78
2023/07/15 02:04:38;;;;;;;1.83;1.30;;;;;;;;;;5073912;28;20031;-78
2023/07/15 02:07:04;;;;;;;2.38;1.50;;;;;;;;;;5073833;28;20033;-78
2023/07/15 02:09:32;;;;;;;2.45;1.60;;;;;;;;;;5073557;28;20070;-78
2023/07/15 02:11:58;;;;;;;2.38;2.00;;;;;;;;;;5074902;28;20025;-79
2023/07/15 02:14:23;;;;;;;2.22;1.40;;;;;;;;;;5074132;28;20024;-78
2023/07/15 02:16:49;;;;;;;1.60;1.50;;;;;;;;;;5073497;28;20210;-78
2023/07/15 02:19:14;;;;;;;1.88;1.40;;;;;;;;;;5074714;28;20035;-78
2023/07/15 02:21:39;;;;;;;3.42;1.60;;;;;;;;;;5090238;28;20037;-78
2023/07/15 02:24:05;;;;;;;1.42;1.30;;;;;;;;;;5074912;28;20395;-79
2023/07/15 02:26:30;;;;;;;1.30;1.20;;;;;;;;;;5074534;28;20086;-79
2023/07/15 02:28:56;;;;;;;2.25;1.60;;;;;;;;;;5107171;28;20032;-79
2023/07/15 02:31:22;;;;;;;2.17;1.52;;;;;;;;;;5074619;28;20050;-78
2023/07/15 02:33:48;;;;;;;1.40;1.30;;;;;;;;;;5074786;28;20111;-78
2023/07/15 02:36:15;;;;;;;1.60;1.40;;;;;;;;;;5073331;28;20085;-79
2023/07/15 02:38:40;;;;;;;2.70;1.60;;;;;;;;;;5073128;28;20073;-78
2023/07/15 02:41:06;;;;;;;1.55;1.45;;;;;;;;;;5073417;28;20371;-78
2023/07/15 02:43:31;;;;;;;2.17;1.55;;;;;;;;;;5074444;28;20436;-78
2023/07/15 02:45:57;;;;;;;1.60;1.42;;;;;;;;;;5073010;28;20029;-79
2023/07/15 02:48:22;;;;;;;2.08;1.33;;;;;;;;;;5074244;28;20043;-78
2023/07/15 02:50:52;;;;;;;1.30;1.20;;;;;;;;;;5072499;28;20045;-78
2023/07/15 02:53:18;;;;;;;1.42;1.33;;;;;;;;;;5072935;28;20119;-78
2023/07/15 02:55:43;;;;;;;1.65;1.55;;;;;;;;;;5073990;28;20420;-78
2023/07/15 02:58:08;;;;;;;1.50;1.40;;;;;;;;;;5072788;28;20033;-78
2023/07/15 03:00:36;;;;;;;1.88;1.52;;;;;;;;;;5106609;28;20028;-78
2023/07/15 03:03:02;;;;;;;2.00;1.40;;;;;;;;;;5072725;28;20020;-79
2023/07/15 03:05:28;;;;;;;2.92;1.42;;;;;;;;;;5074153;28;20543;-78
2023/07/15 03:07:54;;;;;;;1.95;1.50;;;;;;;;;;5106403;28;20028;-78
2023/07/15 03:10:20;;;;;;;3.33;1.48;;;;;;;;;;5106344;28;20123;-78
2023/07/15 03:12:48;;;;;;;2.17;1.65;;;;;;;;;;5073997;28;20135;-78
2023/07/15 03:15:14;;;;;;;2.65;1.75;;;;;;;;;;5073062;28;20375;-78
2023/07/15 03:17:39;;;;;;;2.10;1.40;;;;;;;;;;5073909;28;20501;-78
2023/07/15 03:20:19;;;;;;;3.25;1.40;;;;;;;;;;5074198;28;20123;-78
2023/07/15 03:22:45;;;;;;;1.52;1.40;;;;;;;;;;5106065;28;20028;-78
2023/07/15 03:25:11;;;;;;;4.75;1.38;;;;;;;;;;5072417;28;20082;-78
2023/07/15 03:27:36;;;;;;;1.65;1.50;;;;;;;;;;5072496;28;20032;-79
2023/07/15 03:30:02;;;;;;;2.72;1.60;;;;;;;;;;5072121;28;20060;-79
2023/07/15 03:32:27;;;;;;;4.72;1.50;;;;;;;;;;5089035;28;20078;-78
2023/07/15 03:34:53;;;;;;;1.75;1.52;;;;;;;;;;5073455;28;20028;-78
2023/07/15 03:37:19;;;;;;;2.97;1.52;;;;;;;;;;5072299;28;20489;-78
2023/07/15 03:39:44;;;;;;;5.85;1.30;;;;;;;;;;5055394;28;20024;-78
2023/07/15 03:42:09;;;;;;;1.77;1.40;;;;;;;;;;5073796;28;20525;-79
2023/07/15 03:44:35;;;;;;;3.45;1.70;;;;;;;;;;5072220;28;20395;-79
2023/07/15 03:47:00;;;;;;;2.08;1.60;;;;;;;;;;5072678;28;20058;-78
2023/07/15 03:49:26;;;;;;;2.78;1.98;;;;;;;;;;5072882;28;20036;-78
2023/07/15 03:51:51;;;;;;;6.53;1.60;;;;;;;;;;5073463;28;20086;-78
2023/07/15 03:54:17;;;;;;;2.50;1.55;;;;;;;;;;5088735;28;20502;-78
2023/07/15 03:56:42;;;;;;;1.80;1.65;;;;;;;;;;5072214;28;20037;-78
2023/07/15 03:59:08;;;;;;;2.20;1.35;;;;;;;;;;5073177;28;20032;-79
2023/07/15 04:01:35;;;;;;;1.90;1.60;;;;;;;;;;5073108;28;20021;-78
2023/07/15 04:04:05;;;;;;;1.58;1.48;;;;;;;;;;5073909;28;20409;-78
2023/07/15 04:06:34;;;;;;;1.92;1.70;;;;;;;;;;5072115;28;20082;-78
2023/07/15 04:08:59;;;;;;;2.33;1.63;;;;;;;;;;5073274;28;20024;-78
2023/07/15 04:11:24;;;;;;;1.50;1.40;;;;;;;;;;5073193;28;20032;-79
2023/07/15 04:13:50;;;;;;;2.65;1.85;;;;;;;;;;5073076;28;20070;-79
2023/07/15 04:16:16;;;;;;;2.03;1.45;;;;;;;;;;5088722;28;20033;-78
2023/07/15 04:18:42;;;;;;;3.53;1.67;;;;;;;;;;5073224;28;20541;-79
2023/07/15 04:21:08;;;;;;;2.65;1.58;;;;;;;;;;5072176;28;20020;-79
2023/07/15 04:23:34;;;;;;;1.60;1.33;;;;;;;;;;5071797;28;20107;-78
2023/07/15 04:25:59;;;;;;;1.63;1.50;;;;;;;;;;5072146;28;20044;-79
2023/07/15 04:28:24;;;;;;;1.55;1.30;;;;;;;;;;5071897;28;20120;-79
2023/07/15 04:30:50;;;;;;;2.38;1.60;;;;;;;;;;5071713;28;20108;-79
2023/07/15 04:33:16;;;;;;;3.05;1.60;;;;;;;;;;5072946;28;20036;-78
2023/07/15 04:35:42;;;;;;;2.13;1.58;;;;;;;;;;5071356;28;20024;-78
2023/07/15 04:38:09;;;;;;;2.00;1.40;;;;;;;;;;5075261;28;20031;-78
2023/07/15 04:40:34;;;;;;;1.60;1.50;;;;;;;;;;5075387;28;20111;-78
2023/07/15 04:42:59;;;;;;;3.40;1.58;;;;;;;;;;5077123;28;20454;-79
2023/07/15 04:45:26;;;;;;;1.38;1.27;;;;;;;;;;5076522;28;20024;-79
2023/07/15 04:47:51;;;;;;;1.67;1.55;;;;;;;;;;5075262;28;20039;-78
2023/07/15 04:50:17;;;;;;;3.22;1.95;;;;;;;;;;5076097;28;20041;-78
2023/07/15 04:52:42;;;;;;;3.35;1.45;;;;;;;;;;5076431;28;20036;-79
2023/07/15 04:55:09;;;;;;;1.70;1.40;;;;;;;;;;5075161;28;20036;-78
2023/07/15 04:57:34;;;;;;;3.78;1.60;;;;;;;;;;5075020;28;20376;-78
2023/07/15 04:59:59;;;;;;;1.40;1.30;;;;;;;;;;5075382;28;20037;-79
2023/07/15 05:02:25;;;;;;;1.80;1.60;;;;;;;;;;5074933;28;20115;-78
2023/07/15 05:04:50;;;;;;;2.08;1.50;;;;;;;;;;5058249;28;20036;-78
2023/07/15 05:07:15;;;;;;;3.47;1.70;;;;;;;;;;5076393;28;20028;-78
2023/07/15 05:09:42;;;;;;;1.80;1.50;;;;;;;;;;5075109;28;20039;-78
2023/07/15 05:12:10;;;;;;;3.08;1.38;;;;;;;;;;5076309;28;20032;-78
2023/07/15 05:14:36;;;;;;;2.78;1.73;;;;;;;;;;5075064;28;20379;-78
2023/07/15 05:17:02;;;;;;;2.80;1.80;;;;;;;;;;5075969;28;20077;-78
2023/07/15 05:19:27;;;;;;;2.10;1.38;;;;;;;;;;5074714;28;20036;-78
2023/07/15 05:21:53;;;;;;;3.28;1.45;;;;;;;;;;5057884;28;20055;-78
2023/07/15 05:24:18;;;;;;;4.68;1.65;;;;;;;;;;5075825;28;20074;-77
2023/07/15 05:26:44;;;;;;;4.38;1.63;;;;;;;;;;5076263;28;20036;-77
2023/07/15 05:29:09;;;;;;;1.50;1.33;;;;;;;;;;5074844;28;20033;-76
2023/07/15 05:31:35;;;;;;;3.13;1.50;;;;;;;;;;5075950;28;20104;-81
2023/07/15 05:34:00;;;;;;;2.13;1.60;;;;;;;;;;5075720;28;20029;-77
2023/07/15 05:36:25;;;;;;;7.50;1.60;;;;;;;;;;5075839;28;20028;-77
2023/07/15 05:38:51;;;;;;;3.72;1.70;;;;;;;;;;5075668;28;20441;-76
2023/07/15 05:41:16;;;;;;;8.05;1.83;;;;;;;;;;5075949;28;20027;-79
2023/07/15 05:43:42;;;;;;;2.30;1.73;;;;;;;;;;5074084;28;20033;-76
2023/07/15 05:46:07;;;;;;;4.97;1.50;;;;;;;;;;5057504;28;20402;-77
2023/07/15 05:48:33;;;;;;;3.70;1.70;;;;;;;;;;5075156;28;20493;-77
2023/07/15 05:50:58;;;;;;;6.90;1.85;;;;;;;;;;5074742;28;20045;-77
2023/07/15 05:53:23;;;;;;;8.93;1.80;;;;;;;;;;5075451;28;20028;-79
2023/07/15 05:55:49;;;;;;;4.72;2.10;;;;;;;;;;5075449;28;20575;-79
2023/07/15 05:58:15;;;;;;;1.90;1.60;;;;;;;;;;5074447;28;20103;-81
2023/07/15 06:00:40;;;;;;;2.60;1.80;;;;;;;;;;5073048;28;20020;-79
2023/07/15 06:03:06;;;;;;;3.15;1.90;;;;;;;;;;5073107;28;20087;-80
2023/07/15 06:05:32;;;;;;;4.70;1.77;;;;;;;;;;5073046;28;20029;-80
2023/07/15 06:07:57;;;;;;;4.35;2.00;;;;;;;;;;5074387;28;20157;-81
2023/07/15 06:10:22;;;;;;;2.88;1.55;;;;;;;;;;5074162;28;20025;-80
2023/07/15 06:12:48;;;;;;;2.88;1.63;;;;;;;;;;5072862;28;20052;-81
2023/07/15 06:15:13;;;;;;;4.90;2.15;;;;;;;;;;5072830;28;20031;-80
2023/07/15 06:17:39;;;;;;;2.33;1.67;;;;;;;;;;5073148;28;20032;-79
2023/07/15 06:20:05;;;;;;;6.22;2.33;;;;;;;;;;5074279;28;20028;-80
2023/07/15 06:22:31;;;;;;;7.40;2.30;;;;;;;;;;5074076;28;20529;-82
2023/07/15 06:24:57;;;;;;;6.72;2.17;;;;;;;;;;5072742;28;20033;-82
2023/07/15 06:27:23;;;;;;;4.43;1.88;;;;;;;;;;5073904;28;20029;-82
2023/07/15 06:29:49;;;;;;;3.88;1.90;;;;;;;;;;5055988;28;20082;-79
2023/07/15 06:32:14;;;;;;;3.33;1.77;;;;;;;;;;5075861;28;20031;-81
2023/07/15 06:34:40;;;;;;;6.00;1.80;;;;;;;;;;5072584;28;20078;-82
2023/07/15 06:37:05;;;;;;;2.55;1.58;;;;;;;;;;5073740;28;20040;-82
2023/07/15 06:39:31;;;;;;;1.83;1.45;;;;;;;;;;5073594;28;20039;-81
2023/07/15 06:41:57;;;;;;;3.33;1.70;;;;;;;;;;5072485;28;20028;-84
2023/07/15 06:44:24;;;;;;;3.22;1.58;;;;;;;;;;5072662;28;20033;-83
2023/07/15 06:46:49;;;;;;;2.00;1.42;;;;;;;;;;5073736;28;20034;-83
2023/07/15 06:49:15;;;;;;;2.42;1.15;;;;;;;;;;5089105;28;20107;-83
2023/07/15 06:51:40;;;;;;;1.45;1.35;;;;;;;;;;5072590;28;20033;-83
2023/07/15 06:54:05;;;;;;;2.78;1.38;;;;;;;;;;5072443;28;20028;-81
2023/07/15 06:56:31;;;;;;;5.45;1.30;;;;;;;;;;5072178;28;20054;-81
2023/07/15 06:58:56;;;;;;;2.35;1.60;;;;;;;;;;5072999;28;20024;-82
2023/07/15 07:01:22;;;;;;;2.53;1.40;;;;;;;;;;5071941;28;20077;-81
2023/07/15 07:03:47;;;;;;;1.80;1.55;;;;;;;;;;5071840;28;20034;-81
2023/07/15 07:06:13;;;;;;;2.33;1.38;;;;;;;;;;5072193;28;20036;-81
2023/07/15 07:08:38;;;;;;;2.50;1.17;;;;;;;;;;5072195;28;20486;-81
2023/07/15 07:11:04;;;;;;;1.42;1.20;;;;;;;;;;5072149;28;20029;-81
2023/07/15 07:13:29;;;;;;;2.10;1.42;;;;;;;;;;5071977;28;20028;-81
2023/07/15 07:15:59;;;;;;;4.03;1.70;;;;;;;;;;5071948;28;20105;-81
2023/07/15 07:18:25;;;;;;;4.97;1.73;;;;;;;;;;5073223;28;20035;-80
2023/07/15 07:20:59;;;;;;;2.03;1.55;;;;;;;;;;5072131;28;20086;-80
2023/07/15 07:23:25;;;;;;;2.53;1.58;;;;;;;;;;5071975;28;20020;-80
2023/07/15 07:25:50;;;;;;;2.15;1.23;;;;;;;;;;5055199;28;20490;-80
2023/07/15 07:28:16;;;;;;;1.25;1.15;;;;;;;;;;5055699;28;20055;-80
2023/07/15 07:30:42;;;;;;;1.95;1.20;;;;;;;;;;5072269;28;20507;-80
2023/07/15 07:33:07;;;;;;;4.68;1.65;;;;;;;;;;5073572;28;20089;-80
2023/07/15 07:35:33;;;;;;;4.53;1.45;;;;;;;;;;5073832;28;20098;-80
2023/07/15 07:37:58;;;;;;;4.70;1.33;;;;;;;;;;5074635;28;20037;-80
2023/07/15 07:40:23;;;;;;;2.67;1.30;;;;;;;;;;5072102;28;20020;-80
2023/07/15 07:42:49;;;;;;;5.07;1.30;;;;;;;;;;5072148;28;20027;-80
2023/07/15 07:45:16;;;;;;;2.53;1.30;;;;;;;;;;5072501;28;20032;-77
2023/07/15 07:47:41;;;;;;;1.48;1.15;;;;;;;;;;5072207;28;20055;-80
2023/07/15 07:50:07;;;;;;;5.43;1.20;;;;;;;;;;5075067;28;20045;-80
2023/07/15 07:52:32;;;;;;;2.50;1.13;;;;;;;;;;5073392;28;20066;-78
2023/07/15 07:54:58;;;;;;;1.80;1.10;;;;;;;;;;5073525;28;20033;-78
2023/07/15 07:57:23;;;;;;;2.42;1.38;;;;;;;;;;5073247;28;20044;-80
2023/07/15 07:59:48;;;;;;;2.10;1.20;;;;;;;;;;5073261;28;20520;-79
2023/07/15 08:02:15;;;;;;;1.90;1.15;;;;;;;;;;5073156;28;20028;-79
2023/07/15 08:04:40;;;;;;;1.10;0.90;;;;;;;;;;5072021;28;20112;-79
2023/07/15 08:07:06;;;;;;;1.85;1.20;;;;;;;;;;5072334;28;20522;-80
2023/07/15 08:09:31;;;;;;;2.90;0.98;;;;;;;;;;5073390;28;20379;-80
2023/07/15 08:11:58;;;;;;;2.60;1.42;;;;;;;;;;5056643;28;20136;-79
2023/07/15 08:14:23;;;;;;;1.20;1.10;;;;;;;;;;5077211;28;20368;-79
2023/07/15 08:16:50;;;;;;;1.92;1.02;;;;;;;;;;5077071;28;20040;-79
2023/07/15 08:19:16;;;;;;;4.05;1.65;;;;;;;;;;5077077;28;20032;-80
2023/07/15 08:21:41;;;;;;;7.05;1.45;;;;;;;;;;5059011;28;20035;-79
2023/07/15 08:24:07;;;;;;;4.20;1.38;;;;;;;;;;5075640;28;20028;-79
2023/07/15 08:26:32;;;;;;;4.05;1.30;;;;;;;;;;5076962;28;20494;-79
2023/07/15 08:28:58;;;;;;;4.53;1.27;;;;;;;;;;5076850;28;20073;-80
2023/07/15 08:31:24;;;;;;;4.45;1.45;;;;;;;;;;5058778;28;20387;-79
2023/07/15 08:33:50;;;;;;;3.50;1.33;;;;;;;;;;5075548;28;20039;-78
2023/07/15 08:36:15;;;;;;;1.40;1.30;;;;;;;;;;5058765;28;20029;-77
2023/07/15 08:38:41;;;;;;;2.35;1.25;;;;;;;;;;5077055;28;20536;-77
2023/07/15 08:41:07;;;;;;;3.13;1.30;;;;;;;;;;5059110;28;20041;-77
2023/07/15 08:43:34;;;;;;;8.30;1.70;;;;;;;;;;5076595;28;20127;-77
2023/07/15 08:46:05;;;;;;;10.75;2.13;;;;;;;;;;5076531;28;20082;-77
2023/07/15 08:48:31;;;;;;;5.68;1.42;;;;;;;;;;5075518;28;20035;-78
2023/07/15 08:50:57;;;;;;;3.92;1.50;;;;;;;;;;5057988;28;20052;-77
2023/07/15 08:53:27;;;;;;;8.48;2.55;;;;;;;;;;5075113;28;20070;-76
2023/07/15 08:55:56;;;;;;;5.22;1.92;;;;;;;;;;5076591;28;20120;-77
2023/07/15 08:58:22;;;;;;;8.27;2.22;;;;;;;;;;5058732;28;20430;-75
2023/07/15 09:00:49;;;;;;;5.82;2.00;;;;;;;;;;5076255;28;20537;-77
2023/07/15 09:03:14;;;;;;;9.05;2.83;;;;;;;;;;5075138;28;20414;-77
2023/07/15 09:05:40;;;;;;;3.65;1.83;;;;;;;;;;5076207;28;20036;-77
2023/07/15 09:08:12;;;;;;;4.05;1.75;;;;;;;;;;5076460;28;20423;-77
2023/07/15 09:10:52;;;;;;;5.75;1.77;;;;;;;;;;5086680;28;20031;-76
2023/07/15 09:13:29;;;;;;;5.90;1.92;;;;;;;;;;5078041;28;20470;-78
2023/07/15 09:15:55;;;;;;;5.07;1.90;;;;;;;;;;5095257;28;20077;-78
2023/07/15 09:18:21;;;;;;;5.35;1.73;;;;;;;;;;5095306;28;20024;-77
2023/07/15 09:20:47;;;;;;;5.28;1.80;;;;;;;;;;5095127;28;20031;-77
2023/07/15 09:23:14;;;;;;;5.03;1.63;;;;;;;;;;5094979;28;20028;-77
2023/07/15 09:25:49;;;;;;;3.55;1.63;;;;;;;;;;5078102;28;20028;-78
2023/07/15 09:28:14;;;;;;;3.67;1.60;;;;;;;;;;5077913;28;20031;-77
2023/07/15 09:30:40;;;;;;;3.63;1.45;;;;;;;;;;5095745;28;20028;-77
2023/07/15 09:33:06;;;;;;;3.50;1.70;;;;;;;;;;5096140;28;20443;-77
2023/07/15 09:35:36;;;;;;;2.63;1.30;;;;;;;;;;5094555;28;20503;-77
2023/07/15 09:38:02;;;;;;;2.58;1.30;;;;;;;;;;5094593;28;20540;-78
2023/07/15 09:40:40;;;;;;;3.30;1.48;;;;;;;;;;5095689;28;20024;-78
2023/07/15 09:43:05;;;;;;;3.17;1.40;;;;;;;;;;5095061;28;20466;-78
2023/07/15 09:45:38;;;;;;;2.22;1.58;;;;;;;;;;5095891;28;20115;-77
2023/07/15 09:48:06;;;;;;;3.47;1.58;;;;;;;;;;5094695;28;20024;-78
2023/07/15 09:50:33;;;;;;;1.95;1.35;;;;;;;;;;5095212;28;20055;-77
2023/07/15 09:52:59;;;;;;;2.58;1.65;;;;;;;;;;5077432;28;20024;-77
2023/07/15 09:55:26;;;;;;;1.77;1.45;;;;;;;;;;5094448;28;20471;-79
2023/07/15 09:58:24;;;;;;;1.85;1.40;;;;;;;;;;5077325;28;20439;-82
2023/07/15 10:01:00;;;;;;;4.32;1.55;;;;;;;;;;5094444;28;20028;-79
2023/07/15 10:03:30;;;;;;;3.03;1.40;;;;;;;;;;5094037;28;20047;-79
2023/07/15 10:05:56;;;;;;;1.77;1.35;;;;;;;;;;5095385;28;20031;-79
2023/07/15 10:08:22;;;;;;;1.40;1.30;;;;;;;;;;5095270;28;20023;-79
2023/07/15 10:10:47;;;;;;;1.50;1.40;;;;;;;;;;5076892;28;20035;-78
2023/07/15 10:13:13;;;;;;;4.05;1.42;;;;;;;;;;5093737;28;20024;-78
2023/07/15 10:15:38;;;;;;;4.53;1.63;;;;;;;;;;5094990;28;20051;-78
2023/07/15 10:18:16;;;;;;;2.25;1.45;;;;;;;;;;5093776;28;20032;-79
2023/07/15 10:20:55;;;;;;;2.13;1.50;;;;;;;;;;5077244;28;20169;-77
2023/07/15 10:23:25;;;;;;;3.88;1.42;;;;;;;;;;5094040;28;20031;-78
2023/07/15 10:26:04;;;;;;;3.88;1.40;;;;;;;;;;5093655;28;20482;-81
2023/07/15 10:28:37;;;;;;;2.72;1.60;;;;;;;;;;5078292;28;20401;-80
2023/07/15 10:31:11;;;;;;;2.55;1.50;;;;;;;;;;5076452;28;20064;-80
2023/07/15 10:33:52;;;;;;;3.03;1.30;;;;;;;;;;5093286;28;20024;-80
2023/07/15 10:36:34;;;;;;;1.80;1.20;;;;;;;;;;5094446;28;20502;-81
2023/07/15 10:39:17;;;;;;;1.85;1.20;;;;;;;;;;5093388;28;20602;-80
2023/07/15 10:41:51;;;;;;;2.97;1.35;;;;;;;;;;5093280;28;20035;-80
2023/07/15 10:44:21;;;;;;;5.85;1.35;;;;;;;;;;5095043;28;20020;-81
2023/07/15 10:47:03;;;;;;;2.33;1.27;;;;;;;;;;5076227;28;20054;-81
2023/07/15 10:49:30;;;;;;;3.67;1.30;;;;;;;;;;5092813;28;20031;-79
2023/07/15 10:51:56;;;;;;;3.20;1.33;;;;;;;;;;5094253;28;20040;-79
2023/07/15 10:54:23;;;;;;;1.58;1.20;;;;;;;;;;5076213;28;20034;-80
2023/07/15 10:56:49;;;;;;;2.70;1.17;;;;;;;;;;5093325;28;20386;-79
2023/07/15 10:59:14;;;;;;;2.20;1.13;;;;;;;;;;5075936;28;20035;-78
2023/07/15 11:01:41;;;;;;;3.03;1.20;;;;;;;;;;5095019;28;20032;-79
2023/07/15 11:04:07;;;;;;;2.13;1.30;;;;;;;;;;5093132;28;20024;-79
2023/07/15 11:06:34;;;;;;;4.43;1.30;;;;;;;;;;5092929;28;20107;-79
2023/07/15 11:09:13;;;;;;;2.65;1.15;;;;;;;;;;5092867;28;20470;-80
2023/07/15 11:11:38;;;;;;;2.03;1.40;;;;;;;;;;5075968;28;20035;-78
2023/07/15 11:14:03;;;;;;;2.17;1.00;;;;;;;;;;5091235;28;20023;-81
2023/07/15 11:16:29;;;;;;;2.35;1.20;;;;;;;;;;5092877;28;20513;-78
2023/07/15 11:18:54;;;;;;;5.32;1.30;;;;;;;;;;5092439;28;20467;-79
2023/07/15 11:21:20;;;;;;;3.30;1.30;;;;;;;;;;5094554;28;20036;-80
2023/07/15 11:23:45;;;;;;;1.50;1.17;;;;;;;;;;5092938;28;20040;-79
2023/07/15 11:26:11;;;;;;;7.35;1.48;;;;;;;;;;5092667;28;20102;-80
2023/07/15 11:28:47;;;;;;;8.35;1.50;;;;;;;;;;5092837;28;20078;-79
2023/07/15 11:31:13;;;;;;;3.28;1.50;;;;;;;;;;5075921;28;20031;-80
2023/07/15 11:33:38;;;;;;;4.78;1.30;;;;;;;;;;5085382;28;20043;-79
2023/07/15 11:36:03;;;;;;;3.53;1.60;;;;;;;;;;5089334;28;20031;-80
2023/07/15 11:38:32;;;;;;;2.90;1.50;;;;;;;;;;5093811;28;20115;-81
2023/07/15 11:41:01;;;;;;;3.65;1.38;;;;;;;;;;5092453;28;20059;-80
2023/07/15 11:43:27;;;;;;;3.17;1.48;;;;;;;;;;5092627;28;20383;-79
2023/07/15 11:45:57;;;;;;;1.25;1.15;;;;;;;;;;5093846;28;20024;-80
2023/07/15 11:48:26;;;;;;;4.00;1.30;;;;;;;;;;5092781;28;20544;-80
2023/07/15 11:50:57;;;;;;;2.80;1.42;;;;;;;;;;5081808;28;20040;-79
2023/07/15 11:53:33;;;;;;;2.10;1.30;;;;;;;;;;5075798;28;20539;-80
2023/07/15 11:55:59;;;;;;;3.28;1.40;;;;;;;;;;5096008;28;20025;-80
2023/07/15 11:58:46;;;;;;;1.08;1.02;;;;;;;;;;5071047;28;20032;-81
2023/07/15 12:01:22;;;;;;;2.15;1.40;;;;;;;;;;5061498;28;20554;-80
2023/07/15 12:03:48;;;;;;;1.77;1.10;;;;;;;;;;5110213;28;20093;-79
2023/07/15 12:06:21;;;;;;;2.95;1.55;;;;;;;;;;5087867;28;20035;-80
2023/07/15 12:09:07;;;;;;;3.45;1.50;;;;;;;;;;5074554;28;20021;-80
2023/07/15 12:11:33;;;;;;;1.77;1.20;;;;;;;;;;5082762;28;20039;-80
2023/07/15 12:14:00;;;;;;;2.65;1.33;;;;;;;;;;5084272;28;20531;-80
2023/07/15 12:16:26;;;;;;;1.98;1.27;;;;;;;;;;5076414;28;20081;-80
2023/07/15 12:18:52;;;;;;;2.38;1.30;;;;;;;;;;5073796;28;20119;-80
2023/07/15 12:21:18;;;;;;;1.23;1.13;;;;;;;;;;5072022;28;20545;-80
2023/07/15 12:23:44;;;;;;;4.68;1.20;;;;;;;;;;5106706;28;20033;-80
2023/07/15 12:26:09;;;;;;;1.30;1.17;;;;;;;;;;5073271;28;20452;-80
2023/07/15 12:28:35;;;;;;;2.13;1.40;;;;;;;;;;5072992;28;20107;-81
2023/07/15 12:31:03;;;;;;;1.50;1.20;;;;;;;;;;5096835;28;20032;-80
2023/07/15 12:33:29;;;;;;;2.25;1.13;;;;;;;;;;5103795;28;20082;-81
2023/07/15 12:35:55;;;;;;;4.00;2.03;;;;;;;;;;5074573;28;20032;-81
2023/07/15 12:38:20;;;;;;;2.42;1.20;;;;;;;;;;5085838;28;20116;-81
2023/07/15 12:40:46;;;;;;;1.40;1.17;;;;;;;;;;5080506;28;20119;-80
2023/07/15 12:43:11;;;;;;;1.48;1.17;;;;;;;;;;5078406;28;20033;-86
2023/07/15 12:45:36;;;;;;;1.88;1.30;;;;;;;;;;5071727;28;20078;-86
2023/07/15 12:48:02;;;;;;;3.05;1.23;;;;;;;;;;5071570;28;20056;-83
2023/07/15 12:50:28;;;;;;;1.52;1.17;;;;;;;;;;5071259;28;20379;-82
2023/07/15 12:52:53;;;;;;;2.30;1.30;;;;;;;;;;5072310;28;20390;-79
2023/07/15 12:55:18;;;;;;;1.85;1.30;;;;;;;;;;5106109;28;20040;-86
2023/07/15 12:57:44;;;;;;;3.92;1.20;;;;;;;;;;5055870;28;20024;-82
2023/07/15 13:00:14;;;;;;;2.80;1.10;;;;;;;;;;5092410;28;20024;-80
2023/07/15 13:02:40;;;;;;;1.77;1.40;;;;;;;;;;5075516;28;20081;-82
2023/07/15 13:05:06;;;;;;;2.45;1.30;;;;;;;;;;5077860;28;20023;-81
2023/07/15 13:07:32;;;;;;;3.05;1.30;;;;;;;;;;5109343;28;20036;-85
2023/07/15 13:10:03;;;;;;;5.05;1.50;;;;;;;;;;5078207;28;20024;-83
2023/07/15 13:12:28;;;;;;;1.60;1.50;;;;;;;;;;5077053;28;20024;-83
2023/07/15 13:14:54;;;;;;;2.20;1.45;;;;;;;;;;5075740;28;20074;-83
2023/07/15 13:17:19;;;;;;;3.03;1.40;;;;;;;;;;5077058;28;20036;-83
2023/07/15 13:19:45;;;;;;;1.30;1.10;;;;;;;;;;5075925;28;20083;-83
2023/07/15 13:22:10;;;;;;;2.60;1.40;;;;;;;;;;5077055;28;20052;-83
2023/07/15 13:24:36;;;;;;;4.22;1.25;;;;;;;;;;5076088;28;20064;-84
2023/07/15 13:27:01;;;;;;;2.60;1.23;;;;;;;;;;5075864;28;20040;-82
2023/07/15 13:29:27;;;;;;;3.58;1.42;;;;;;;;;;5074484;28;20032;-83
2023/07/15 13:31:52;;;;;;;1.35;1.17;;;;;;;;;;5074924;28;20513;-84
2023/07/15 13:34:17;;;;;;;1.50;1.10;;;;;;;;;;5092285;28;20032;-82
2023/07/15 13:36:43;;;;;;;1.52;1.27;;;;;;;;;;5074552;28;20054;-83
2023/07/15 13:39:35;;;;;;;1.27;1.00;;;;;;;;;;5074641;28;20031;-83
2023/07/15 13:42:04;;;;;;;1.42;1.02;;;;;;;;;;5074278;28;20079;-83
2023/07/15 13:44:31;;;;;;;2.20;1.10;;;;;;;;;;5074926;28;20056;-83
2023/07/15 13:46:56;;;;;;;2.30;1.30;;;;;;;;;;5074333;28;20033;-82
2023/07/15 13:49:22;;;;;;;3.30;1.25;;;;;;;;;;5074044;28;20426;-81
2023/07/15 13:51:47;;;;;;;2.95;1.30;;;;;;;;;;5075166;28;20044;-82
2023/07/15 13:54:12;;;;;;;3.38;1.73;;;;;;;;;;5075343;28;20025;-82
2023/07/15 13:56:38;;;;;;;1.95;1.25;;;;;;;;;;5075530;28;20538;-82
2023/07/15 13:59:03;;;;;;;2.05;1.27;;;;;;;;;;5073990;28;20029;-82
2023/07/15 14:01:28;;;;;;;1.15;1.05;;;;;;;;;;5075437;28;20119;-82
2023/07/15 14:03:54;;;;;;;2.65;1.10;;;;;;;;;;5107669;28;20032;-82
2023/07/15 14:06:20;;;;;;;1.83;0.90;;;;;;;;;;5075526;28;20471;-82
2023/07/15 14:08:45;;;;;;;1.85;1.10;;;;;;;;;;5075112;28;20052;-82
2023/07/15 14:11:11;;;;;;;2.70;1.30;;;;;;;;;;5075017;28;20142;-82
2023/07/15 14:13:38;;;;;;;2.30;1.10;;;;;;;;;;5073850;28;20068;-81
2023/07/15 14:16:03;;;;;;;2.97;1.10;;;;;;;;;;5090762;28;20086;-83
2023/07/15 14:18:29;;;;;;;1.77;1.10;;;;;;;;;;5075174;28;20420;-82
2023/07/15 14:20:54;;;;;;;1.15;1.05;;;;;;;;;;5075228;28;20078;-82
2023/07/15 14:23:19;;;;;;;1.80;1.05;;;;;;;;;;5075271;28;20039;-82
2023/07/15 14:25:45;;;;;;;4.13;1.10;;;;;;;;;;5074844;28;20032;-82
2023/07/15 14:28:10;;;;;;;1.35;1.25;;;;;;;;;;5073516;28;20064;-82
2023/07/15 14:30:35;;;;;;;1.25;1.05;;;;;;;;;;5073646;28;20032;-82
2023/07/15 14:33:01;;;;;;;1.30;1.10;;;;;;;;;;5073684;28;20107;-82
2023/07/15 14:35:26;;;;;;;1.30;1.20;;;;;;;;;;5074354;28;20044;-83
2023/07/15 14:37:52;;;;;;;1.15;1.10;;;;;;;;;;5074506;28;20074;-82
2023/07/15 14:40:17;;;;;;;1.65;1.10;;;;;;;;;;5074796;28;20498;-83
2023/07/15 14:42:42;;;;;;;1.42;1.20;;;;;;;;;;5075082;28;20029;-87